createdAt,value
2019-03-08T00:04:38.225Z,4.7
2019-03-08T00:10:01.355Z,3.8
2019-03-08T00:15:23.965Z,4.5
2019-03-08T00:20:46.677Z,3.7
2019-03-08T00:26:09.304Z,5.4
2019-03-08T00:31:31.918Z,4.4
2019-03-08T00:36:54.660Z,4.6
2019-03-08T00:42:17.268Z,3.3
2019-03-08T00:47:41.037Z,4.3
2019-03-08T00:53:03.617Z,5.3
2019-03-08T00:58:26.636Z,3.8
2019-03-08T01:03:49.515Z,4.7
2019-03-08T01:09:12.164Z,4.7
2019-03-08T01:14:34.758Z,3.7
2019-03-08T01:19:57.379Z,5
2019-03-08T01:25:21.508Z,3.5
2019-03-08T01:30:42.974Z,5.1
2019-03-08T01:36:05.809Z,4.6
2019-03-08T01:41:28.473Z,5.4
2019-03-08T01:46:51.191Z,4.7
2019-03-08T01:52:14.000Z,5.4
2019-03-08T01:57:36.600Z,4.8
2019-03-08T02:03:00.307Z,4.1
2019-03-08T02:08:24.834Z,4.1
2019-03-08T02:13:47.714Z,3.2
2019-03-08T02:19:11.232Z,2.9
2019-03-08T02:24:33.888Z,2
2019-03-08T02:29:56.563Z,2.9
2019-03-08T02:35:19.266Z,2.6
2019-03-08T02:40:41.921Z,5.5
2019-03-08T02:46:05.489Z,4.3
2019-03-08T02:51:28.419Z,6.1
2019-03-08T02:56:51.109Z,4.6
2019-03-08T03:02:14.696Z,5.2
2019-03-08T03:07:37.394Z,6.1
2019-03-08T03:13:00.087Z,7.3
2019-03-08T03:18:22.939Z,7.4
2019-03-08T03:23:45.757Z,6.5
2019-03-08T03:29:17.281Z,5.3
2019-03-08T03:34:40.247Z,6
2019-03-08T03:40:03.245Z,6.1
2019-03-08T03:45:26.081Z,5.8
2019-03-08T03:50:48.730Z,6.1
2019-03-08T03:56:11.585Z,8.5
2019-03-08T04:01:34.221Z,9.2
2019-03-08T04:06:57.101Z,10
2019-03-08T04:12:20.770Z,8.1
2019-03-08T04:17:42.655Z,9.4
2019-03-08T04:23:05.394Z,12.5
2019-03-08T04:28:28.176Z,11.6
2019-03-08T04:33:52.938Z,13.1
2019-03-08T04:39:15.767Z,14.7
2019-03-08T04:44:38.552Z,11.8
2019-03-08T04:50:01.246Z,10
2019-03-08T04:55:23.952Z,9.9
2019-03-08T05:00:46.568Z,10.3
2019-03-08T05:06:09.324Z,14.8
2019-03-08T05:11:32.871Z,11.3
2019-03-08T05:16:55.521Z,12.9
2019-03-08T05:22:18.146Z,13.5
2019-03-08T05:27:41.361Z,13.2
2019-03-08T05:33:04.940Z,12.4
2019-03-08T05:38:27.890Z,15.6
2019-03-08T05:43:50.630Z,16.799999
2019-03-08T05:49:13.389Z,11.3
2019-03-08T05:54:36.250Z,13.3
2019-03-08T05:59:58.991Z,17.799999
2019-03-08T06:05:21.685Z,17.5
2019-03-08T06:10:44.364Z,19.6
2019-03-08T06:16:07.255Z,16.6
2019-03-08T06:21:29.993Z,19.299999
2019-03-08T06:26:52.658Z,14.3
2019-03-08T06:32:15.367Z,18
2019-03-08T06:37:38.049Z,18.9
2019-03-08T06:43:00.742Z,17.6
2019-03-08T06:48:23.407Z,16
2019-03-08T06:53:46.069Z,15.7
2019-03-08T06:59:08.833Z,13.4
2019-03-08T07:04:31.563Z,19.799999
2019-03-08T07:09:54.295Z,17.1
2019-03-08T07:15:16.964Z,13.3
2019-03-08T07:20:39.738Z,16.299999
2019-03-08T07:26:02.556Z,16.4
2019-03-08T07:31:25.443Z,15.2
2019-03-08T07:36:48.222Z,18.299999
2019-03-08T07:42:13.143Z,26.1
2019-03-08T07:48:12.968Z,20.4
2019-03-08T07:53:35.838Z,18
2019-03-08T07:58:58.794Z,21
2019-03-08T08:04:22.380Z,25.4
2019-03-08T08:09:45.801Z,32.400002
2019-03-08T08:15:08.693Z,36.700001
2019-03-08T08:20:31.416Z,25.5
2019-03-08T08:25:54.232Z,26.1
2019-03-08T08:31:16.959Z,28.5
2019-03-08T08:36:39.779Z,24.1
2019-03-08T08:42:02.431Z,20.4
2019-03-08T08:47:25.135Z,18.4
2019-03-08T08:52:47.971Z,16.200001
2019-03-08T08:58:10.632Z,15.8
2019-03-08T09:03:33.293Z,16.299999
2019-03-08T09:08:56.034Z,17.5
2019-03-08T09:14:18.755Z,14
2019-03-08T09:19:41.419Z,18.299999
2019-03-08T09:25:04.083Z,20.1
2019-03-08T09:30:26.856Z,15.8
2019-03-08T09:35:49.565Z,18.6
2019-03-08T09:41:12.289Z,22.9
2019-03-08T09:46:34.924Z,16.9
2019-03-08T09:51:57.778Z,17.6
2019-03-08T09:57:20.516Z,18.299999
2019-03-08T10:02:43.264Z,17.6
2019-03-08T10:08:05.913Z,19.6
2019-03-08T10:13:28.896Z,16.1
2019-03-08T10:18:51.756Z,16.9
2019-03-08T10:24:14.473Z,13.9
2019-03-08T10:29:37.274Z,13.5
2019-03-08T10:35:01.183Z,14.5
2019-03-08T10:40:23.978Z,14.9
2019-03-08T10:45:47.590Z,15
2019-03-08T10:51:10.412Z,19.4
2019-03-08T10:56:33.305Z,17.299999
2019-03-08T11:01:56.034Z,22.4
2019-03-08T11:07:18.764Z,14.8
2019-03-08T11:12:41.416Z,18.1
2019-03-08T11:18:04.104Z,16.700001
2019-03-08T11:23:26.918Z,12.1
2019-03-08T11:28:50.421Z,16.799999
2019-03-08T11:34:13.143Z,18.1
2019-03-08T11:39:35.929Z,14.6
2019-03-08T11:44:58.681Z,13.3
2019-03-08T11:50:21.427Z,13.8
2019-03-08T11:55:44.082Z,14
2019-03-08T12:01:06.729Z,17.4
2019-03-08T12:06:29.455Z,13.1
2019-03-08T12:11:52.138Z,14.7
2019-03-08T12:17:15.160Z,9.8
2019-03-08T12:22:37.881Z,10.1
2019-03-08T12:28:00.552Z,12.6
2019-03-08T12:33:23.426Z,9.7
2019-03-08T12:38:46.848Z,12.2
2019-03-08T12:44:08.637Z,16
2019-03-08T12:49:31.577Z,11.1
2019-03-08T12:54:54.332Z,12.9
2019-03-08T13:00:17.145Z,12.9
2019-03-08T13:05:39.892Z,13.6
2019-03-08T13:11:02.528Z,10.8
2019-03-08T13:16:25.200Z,12.7
2019-03-08T13:21:47.889Z,14.5
2019-03-08T13:27:10.730Z,12
2019-03-08T13:32:33.949Z,12.9
2019-03-08T13:37:56.030Z,13.7
2019-03-08T13:43:18.986Z,12.3
2019-03-08T13:48:41.710Z,10.5
2019-03-08T13:54:04.435Z,14.2
2019-03-08T13:59:27.140Z,10.5
2019-03-08T14:04:49.947Z,10.1
2019-03-08T14:10:13.366Z,10.3
2019-03-08T14:15:36.066Z,9.6
2019-03-08T14:20:58.747Z,8.9
2019-03-08T14:26:21.650Z,14.5
2019-03-08T14:31:45.270Z,13.2
2019-03-08T14:37:07.971Z,7.2
2019-03-08T14:42:30.628Z,7.9
2019-03-08T14:47:53.318Z,8.7
2019-03-08T14:53:16.099Z,7.8
2019-03-08T14:58:40.260Z,6.6
2019-03-08T15:04:01.463Z,7.4
2019-03-08T15:09:24.128Z,8.5
2019-03-08T15:14:47.774Z,7.3
2019-03-08T15:20:15.013Z,9
2019-03-08T15:25:34.833Z,10.4
2019-03-08T15:30:57.705Z,9.9
2019-03-08T15:36:19.967Z,9.5
2019-03-08T15:41:42.778Z,9.3
2019-03-08T15:47:05.411Z,8.2
2019-03-08T15:52:29.119Z,7.7
2019-03-08T15:57:51.795Z,8.8
2019-03-08T16:03:14.679Z,6.2
2019-03-08T16:08:39.626Z,8.9
2019-03-08T16:14:08.344Z,7.1
2019-03-08T16:19:26.175Z,10
2019-03-08T16:24:47.825Z,10.6
2019-03-08T16:30:10.682Z,8.5
2019-03-08T16:35:33.244Z,8.1
2019-03-08T16:40:55.978Z,9.5
2019-03-08T16:46:18.668Z,10.7
2019-03-08T16:51:42.540Z,8.5
2019-03-08T16:57:05.260Z,11.8
2019-03-08T17:02:28.005Z,8.9
2019-03-08T17:07:50.940Z,8.5
2019-03-08T17:13:13.606Z,9.9
2019-03-08T17:18:36.276Z,15
2019-03-08T17:23:59.191Z,13.3
2019-03-08T17:29:21.918Z,8.4
2019-03-08T17:34:45.639Z,6
2019-03-08T17:40:07.629Z,12.6
2019-03-08T17:45:31.259Z,7.4
2019-03-08T17:50:53.905Z,7
2019-03-08T17:56:16.616Z,8.9
2019-03-08T18:01:43.912Z,11.1
2019-03-08T18:07:06.769Z,8.9
2019-03-08T18:12:29.471Z,8.5
2019-03-08T18:17:52.454Z,5.1
2019-03-08T18:23:15.177Z,8.4
2019-03-08T18:28:38.301Z,5.6
2019-03-08T18:34:00.330Z,6.4
2019-03-08T18:39:23.861Z,5.8
2019-03-08T18:44:46.517Z,9
2019-03-08T18:50:09.522Z,10
2019-03-08T18:55:33.634Z,9.7
2019-03-08T19:00:55.847Z,10.3
2019-03-08T19:06:18.780Z,6.3
2019-03-08T19:11:41.544Z,7.6
2019-03-08T19:17:04.330Z,7.6
2019-03-08T19:22:27.110Z,10.9
2019-03-08T19:27:49.943Z,7.8
2019-03-08T19:33:13.779Z,8.5
2019-03-08T19:38:36.649Z,9.3
2019-03-08T19:44:04.751Z,11.3
2019-03-08T19:49:28.912Z,11.8
2019-03-08T19:54:51.784Z,13.8
2019-03-08T20:00:14.530Z,9.7
2019-03-08T20:05:37.508Z,10.2
2019-03-08T20:10:59.423Z,7.4
2019-03-08T20:16:22.502Z,5.4
2019-03-08T20:21:45.702Z,5.8
2019-03-08T20:27:08.695Z,6.4
2019-03-08T20:32:30.515Z,8.1
2019-03-08T20:37:53.326Z,7.5
2019-03-08T20:43:16.660Z,10
2019-03-08T20:48:40.071Z,13.1
2019-03-08T20:54:03.201Z,10
2019-03-08T20:59:26.355Z,7.7
2019-03-08T21:04:49.263Z,8.5
2019-03-08T21:10:12.313Z,9.5
2019-03-08T21:15:35.422Z,9.2
2019-03-08T21:20:57.552Z,8.1
2019-03-08T21:26:20.580Z,9.5
2019-03-08T21:31:43.703Z,8
2019-03-08T21:37:06.759Z,9.6
2019-03-08T21:42:28.688Z,11.5
2019-03-08T21:47:51.497Z,8.9
2019-03-08T21:53:14.363Z,10.6
2019-03-08T21:58:36.987Z,11.7
2019-03-08T22:03:59.824Z,10.4
2019-03-08T22:09:22.544Z,10.4
2019-03-08T22:14:45.244Z,11.8
2019-03-08T22:20:07.929Z,13.3
2019-03-08T22:25:31.260Z,12.1
2019-03-08T22:30:54.079Z,10.6
2019-03-08T22:36:16.763Z,12.1
2019-03-08T22:41:40.354Z,11.1
2019-03-08T22:47:03.095Z,10.9
2019-03-08T22:52:25.836Z,11
2019-03-08T22:57:50.318Z,9.7
2019-03-08T23:03:12.972Z,11
2019-03-08T23:08:35.667Z,11.2
2019-03-08T23:13:59.873Z,10.2
2019-03-08T23:19:22.637Z,13.8
2019-03-08T23:24:46.679Z,14.5
2019-03-08T23:30:09.855Z,11.7
2019-03-08T23:35:31.508Z,15.1
2019-03-08T23:41:03.781Z,13.5
2019-03-08T23:46:35.279Z,15.4
2019-03-08T23:51:58.034Z,16.6
2019-03-08T23:57:20.864Z,17.799999
